Mancio Lima, Brazil
Current Conditions -  °F | °C
As of 6:00 AM on Monday 20 Oct 2014 (Local Time) from SBCZ Reporting Station
Moderate Fog Moderate Fog  
Wind Chill: 70°   Ceiling: Unl
Heat Index: 70°   Visibility: 0.5mi
Dew Point: 70°   Wind: 0mph
Humidity: 100%   Direction: NA
Pressure: 29.91"   Gusts: NA
Location:  7.62°S, 72.9°W
Report Text: SBCZ 201100Z 00000KT 0800 FG SCT003 SCT100 21/21 Q1013
Loading
Personal Weather Stations






























Interactive Weather Map
Tropical Storm Tracking
New forecast layout! Learn more

10-Day Weather Forecast

Advertisements
Track Severe Weather on mobile